Dewees Island, South Carolina
Current Conditions -  °F | °C
As of 5:15 PM on Saturday 25 Oct 2014 (Local Time) from KLRO Reporting Station
Clear Clear  
Wind Chill: 23°   Ceiling: Unl
Heat Index: 23°   Visibility: 10mi
Dew Point:   Wind: 6mph
Humidity: 36%   Direction: 350°N
Pressure: 29.94"   Gusts: NA
Location:  32.8046°N, 79.7534°W
Report Text: KLRO 252115Z AUTO 35005KT 10SM CLR 23/07 A2994 RMK AO2 PWINO PNO
Loading
Personal Weather Stations






























Interactive Weather Map
Tropical Storm Tracking
New forecast layout! Learn more

10-Day Weather Forecast

Advertisements
Track Severe Weather on mobile